Time;durP1;ratioP1;P1;durP2;ratioP2;P2;SDS_P1;SDS_P2;PMS_P1;PMS_P2;Temp;Humidity;BMP_temperature;BMP_pressure;BME280_temperature;BME280_humidity;BME280_pressure;Samples;Min_cycle;Max_cycle;Signal;HPM_P1;HPM_P2
2021/08/11 00:01:21;;;;;;;11.23;9.70;;;15.00;99.90;;;;;;5018185;28;20199;-79
2021/08/11 00:03:47;;;;;;;11.63;10.43;;;15.10;99.90;;;;;;5034775;28;20187;-80
2021/08/11 00:06:12;;;;;;;11.27;9.53;;;15.10;99.90;;;;;;4985799;28;20207;-79
2021/08/11 00:08:38;;;;;;;11.37;10.17;;;15.10;99.90;;;;;;5018537;28;20180;-79
2021/08/11 00:11:03;;;;;;;11.23;9.97;;;15.10;99.90;;;;;;5001586;28;20270;-79
2021/08/11 00:13:29;;;;;;;11.90;10.33;;;15.10;99.90;;;;;;5002188;28;20182;-79
2021/08/11 00:15:54;;;;;;;11.67;10.47;;;15.00;99.90;;;;;;5001883;28;20462;-79
2021/08/11 00:18:20;;;;;;;11.83;9.70;;;15.00;99.90;;;;;;4986140;28;20257;-79
2021/08/11 00:20:45;;;;;;;12.37;11.17;;;14.90;99.90;;;;;;5001484;28;20203;-79
2021/08/11 00:23:11;;;;;;;14.63;11.63;;;15.00;99.90;;;;;;5001470;28;20188;-79
2021/08/11 00:25:37;;;;;;;12.70;11.37;;;14.90;99.90;;;;;;5001021;28;20210;-79
2021/08/11 00:28:02;;;;;;;13.97;10.80;;;14.90;99.90;;;;;;5001298;28;20172;-79
2021/08/11 00:30:28;;;;;;;12.07;10.87;;;14.90;99.90;;;;;;5002233;28;20192;-79
2021/08/11 00:32:53;;;;;;;12.37;10.77;;;14.80;99.90;;;;;;5018447;28;20172;-78
2021/08/11 00:35:19;;;;;;;12.50;10.83;;;14.80;99.90;;;;;;5001726;28;20168;-78
2021/08/11 00:37:44;;;;;;;13.83;10.87;;;14.80;99.90;;;;;;4985928;28;20172;-79
2021/08/11 00:40:11;;;;;;;12.43;10.77;;;14.80;99.90;;;;;;5000737;28;20226;-79
2021/08/11 00:42:37;;;;;;;13.40;11.13;;;14.80;99.90;;;;;;4985305;28;20238;-79
2021/08/11 00:45:03;;;;;;;13.00;11.23;;;14.70;99.90;;;;;;5000838;28;20176;-79
2021/08/11 00:47:35;;;;;;;12.90;11.60;;;14.70;99.90;;;;;;5002674;28;20207;-79
2021/08/11 00:50:00;;;;;;;14.00;11.23;;;14.60;99.90;;;;;;5003235;28;20183;-79
2021/08/11 00:52:26;;;;;;;13.23;11.23;;;14.60;99.90;;;;;;4983899;28;20191;-79
2021/08/11 00:54:52;;;;;;;13.87;11.07;;;14.60;99.90;;;;;;5001989;28;20178;-79
2021/08/11 00:57:17;;;;;;;13.60;11.13;;;14.60;99.90;;;;;;4985139;28;20179;-79
2021/08/11 00:59:43;;;;;;;16.20;10.40;;;14.50;99.90;;;;;;4982492;28;20175;-79
2021/08/11 01:02:09;;;;;;;12.47;10.77;;;14.50;99.90;;;;;;4982898;28;20199;-79
2021/08/11 01:04:34;;;;;;;12.50;10.67;;;14.50;99.90;;;;;;4981644;28;20219;-79
2021/08/11 01:07:03;;;;;;;14.00;11.70;;;14.50;99.90;;;;;;4998087;28;20222;-79
2021/08/11 01:09:29;;;;;;;12.83;11.53;;;14.40;99.90;;;;;;5014776;28;20612;-79
2021/08/11 01:11:55;;;;;;;14.13;11.07;;;14.40;99.90;;;;;;4982637;28;20207;-79
2021/08/11 01:14:20;;;;;;;13.60;11.10;;;14.40;99.90;;;;;;4999576;28;20182;-79
2021/08/11 01:16:46;;;;;;;14.40;11.90;;;14.30;99.90;;;;;;5015659;28;20190;-79
2021/08/11 01:19:11;;;;;;;12.73;11.40;;;14.30;99.90;;;;;;5015453;28;20267;-79
2021/08/11 01:22:00;;;;;;;13.80;11.70;;;14.30;99.90;;;;;;5001286;28;20737;-79
2021/08/11 01:24:48;;;;;;;15.50;11.50;;;14.30;99.90;;;;;;5000618;28;20179;-79
2021/08/11 01:27:41;;;;;;;12.07;10.80;;;14.20;99.90;;;;;;5017144;28;20199;-79
2021/08/11 01:30:39;;;;;;;13.50;11.07;;;14.20;99.90;;;;;;5020414;28;20244;-79
2021/08/11 01:33:24;;;;;;;14.67;12.07;;;14.20;99.90;;;;;;4998694;28;20196;-79
2021/08/11 01:36:06;;;;;;;12.53;11.23;;;14.10;99.90;;;;;;5018247;28;20183;-79
2021/08/11 01:38:33;;;;;;;14.30;11.67;;;14.10;99.90;;;;;;5002386;28;20620;-79
2021/08/11 01:41:03;;;;;;;16.83;12.30;;;14.10;99.90;;;;;;5000411;28;20196;-78
2021/08/11 01:43:33;;;;;;;14.13;11.37;;;14.10;99.90;;;;;;5000100;28;20659;-79
2021/08/11 01:45:58;;;;;;;12.03;10.77;;;14.10;99.90;;;;;;4983843;28;20215;-79
2021/08/11 01:48:27;;;;;;;12.77;11.43;;;14.10;99.90;;;;;;4984125;28;20233;-79
2021/08/11 01:50:52;;;;;;;15.47;11.30;;;14.10;99.90;;;;;;5015403;28;20195;-79
2021/08/11 01:53:19;;;;;;;12.90;10.67;;;14.00;99.90;;;;;;4983160;28;20263;-79
2021/08/11 01:55:47;;;;;;;13.23;11.03;;;14.00;99.90;;;;;;4985660;28;20219;-79
2021/08/11 01:58:12;;;;;;;16.67;11.60;;;13.90;99.90;;;;;;4986247;28;20184;-79
2021/08/11 02:00:38;;;;;;;12.90;11.50;;;14.00;99.90;;;;;;5002796;28;20567;-79
2021/08/11 02:03:04;;;;;;;12.73;10.90;;;13.90;99.90;;;;;;5003183;28;20591;-79
2021/08/11 02:05:31;;;;;;;14.00;10.63;;;13.90;99.90;;;;;;4987836;28;20840;-79
2021/08/11 02:07:58;;;;;;;13.97;10.80;;;13.90;99.90;;;;;;4989503;28;20262;-79
2021/08/11 02:10:23;;;;;;;12.87;10.60;;;13.90;99.90;;;;;;5003550;28;20191;-78
2021/08/11 02:12:49;;;;;;;12.47;10.37;;;13.80;99.90;;;;;;5006031;28;20190;-80
2021/08/11 02:15:14;;;;;;;13.83;11.07;;;13.80;99.90;;;;;;4988810;28;20271;-79
2021/08/11 02:17:40;;;;;;;14.60;12.00;;;13.80;99.90;;;;;;5021249;28;20210;-79
2021/08/11 02:20:08;;;;;;;13.50;11.07;;;13.80;99.90;;;;;;5003046;28;20249;-79
2021/08/11 02:22:33;;;;;;;12.53;10.43;;;13.70;99.90;;;;;;5003406;28;20238;-79
2021/08/11 02:25:01;;;;;;;13.10;10.93;;;13.70;99.90;;;;;;5003460;28;20183;-79
2021/08/11 02:27:29;;;;;;;12.73;11.03;;;13.70;99.90;;;;;;4987603;28;20227;-79
2021/08/11 02:30:12;;;;;;;14.00;10.10;;;13.70;99.90;;;;;;4987240;28;20183;-79
2021/08/11 02:32:54;;;;;;;15.27;10.80;;;13.70;99.90;;;;;;5003708;28;20658;-79
2021/08/11 02:35:36;;;;;;;14.37;11.20;;;13.70;99.90;;;;;;5020189;28;20462;-79
2021/08/11 02:38:09;;;;;;;13.13;10.97;;;13.60;99.90;;;;;;5004109;28;20219;-78
2021/08/11 02:40:39;;;;;;;12.03;10.73;;;13.60;99.90;;;;;;4982683;28;20210;-78
2021/08/11 02:43:13;;;;;;;13.83;11.00;;;13.60;99.90;;;;;;4981945;28;20644;-78
2021/08/11 02:45:39;;;;;;;12.00;10.27;;;13.60;99.90;;;;;;4987026;28;20227;-79
2021/08/11 02:48:05;;;;;;;12.07;10.87;;;13.50;99.90;;;;;;4981339;28;20673;-79
2021/08/11 02:50:30;;;;;;;14.33;10.63;;;13.50;99.90;;;;;;4981543;28;20204;-79
2021/08/11 02:52:56;;;;;;;13.00;10.53;;;13.50;99.90;;;;;;4979803;28;20173;-79
2021/08/11 02:55:22;;;;;;;12.67;11.20;;;13.50;99.90;;;;;;4978807;28;20169;-79
2021/08/11 02:57:47;;;;;;;12.80;11.10;;;13.50;99.90;;;;;;4979099;28;20676;-78
2021/08/11 03:00:13;;;;;;;12.87;10.93;;;13.40;99.90;;;;;;4980134;28;20550;-79
2021/08/11 03:02:38;;;;;;;13.40;11.43;;;13.50;99.90;;;;;;4998779;28;20173;-78
2021/08/11 03:05:05;;;;;;;14.30;10.83;;;13.40;99.90;;;;;;4998805;28;20184;-79
2021/08/11 03:07:30;;;;;;;14.33;11.20;;;13.50;99.90;;;;;;4998575;28;20258;-79
2021/08/11 03:09:56;;;;;;;15.93;12.03;;;13.50;99.90;;;;;;4999832;28;20180;-78
2021/08/11 03:12:21;;;;;;;15.17;11.40;;;13.50;99.90;;;;;;4999225;28;20291;-78
2021/08/11 03:14:48;;;;;;;17.97;12.60;;;13.50;99.90;;;;;;4999001;28;20552;-78
2021/08/11 03:17:14;;;;;;;15.83;11.80;;;13.50;99.90;;;;;;4998490;28;20172;-78
2021/08/11 03:19:39;;;;;;;15.23;11.60;;;13.40;99.90;;;;;;4998708;28;20561;-78
2021/08/11 03:22:06;;;;;;;15.40;10.90;;;13.40;99.90;;;;;;4998415;28;20669;-78
2021/08/11 03:24:31;;;;;;;18.00;12.30;;;13.40;99.90;;;;;;4998901;28;20185;-79
2021/08/11 03:26:57;;;;;;;18.13;12.80;;;13.40;99.90;;;;;;4997986;28;20604;-79
2021/08/11 03:29:23;;;;;;;16.67;12.60;;;13.40;99.90;;;;;;4999249;28;20259;-78
2021/08/11 03:31:48;;;;;;;18.60;13.40;;;13.40;99.90;;;;;;4998021;28;20226;-78
2021/08/11 03:34:14;;;;;;;19.37;13.63;;;13.40;99.90;;;;;;4965486;28;20191;-80
2021/08/11 03:36:39;;;;;;;18.93;13.40;;;13.50;99.90;;;;;;4997976;28;20191;-78
2021/08/11 03:39:05;;;;;;;19.43;13.40;;;13.50;99.90;;;;;;4981632;28;20192;-78
2021/08/11 03:41:30;;;;;;;16.57;12.47;;;13.50;99.90;;;;;;4966405;28;20228;-78
2021/08/11 03:43:56;;;;;;;18.57;13.20;;;13.60;99.90;;;;;;4998753;28;20208;-78
2021/08/11 03:46:21;;;;;;;19.50;12.83;;;13.60;99.90;;;;;;4981654;28;20208;-78
2021/08/11 03:48:47;;;;;;;18.97;13.07;;;13.70;99.90;;;;;;4997613;28;20254;-78
2021/08/11 03:51:12;;;;;;;18.07;12.90;;;13.70;99.90;;;;;;4997924;28;20204;-78
2021/08/11 03:53:39;;;;;;;22.30;13.90;;;13.70;99.90;;;;;;5032186;23;20234;-78
2021/08/11 03:56:05;;;;;;;23.80;13.77;;;13.70;99.90;;;;;;5013858;28;20198;-78
2021/08/11 03:58:31;;;;;;;29.80;14.73;;;13.70;99.90;;;;;;5015307;28;20232;-78
2021/08/11 04:00:57;;;;;;;28.63;15.53;;;13.80;99.90;;;;;;5031101;28;20202;-78
2021/08/11 04:03:22;;;;;;;34.57;15.00;;;13.80;99.90;;;;;;5030541;28;20684;-78
2021/08/11 04:05:48;;;;;;;36.10;16.77;;;13.80;99.90;;;;;;5018561;28;20194;-78
2021/08/11 04:08:14;;;;;;;41.40;16.57;;;13.80;99.90;;;;;;5034912;28;20229;-78
2021/08/11 04:10:44;;;;;;;37.53;15.80;;;13.90;99.90;;;;;;5051340;28;20178;-78
2021/08/11 04:13:10;;;;;;;42.63;17.47;;;13.80;99.90;;;;;;5052785;28;20186;-78
2021/08/11 04:15:35;;;;;;;50.37;17.93;;;13.80;99.90;;;;;;5018349;28;20192;-78
2021/08/11 04:18:01;;;;;;;39.10;17.67;;;13.90;99.90;;;;;;5034026;28;20182;-78
2021/08/11 04:20:26;;;;;;;40.50;18.17;;;14.00;99.90;;;;;;5034367;28;20171;-79
2021/08/11 04:22:52;;;;;;;42.93;16.97;;;14.00;99.90;;;;;;5034656;28;20201;-78
2021/08/11 04:25:17;;;;;;;44.50;18.80;;;14.00;99.90;;;;;;5018138;28;20174;-78
2021/08/11 04:27:43;;;;;;;51.93;19.67;;;14.00;99.90;;;;;;5051164;28;20293;-78
2021/08/11 04:30:09;;;;;;;42.83;18.50;;;14.00;99.90;;;;;;5052481;28;20259;-79
2021/08/11 04:32:35;;;;;;;59.10;19.80;;;14.00;99.90;;;;;;5034476;28;20197;-80
2021/08/11 04:35:03;;;;;;;58.67;20.80;;;14.10;99.90;;;;;;5034874;28;20170;-80
2021/08/11 04:37:28;;;;;;;61.10;19.73;;;14.10;99.90;;;;;;5034592;28;20236;-78
2021/08/11 04:39:54;;;;;;;57.27;20.87;;;14.20;99.90;;;;;;5052126;28;20641;-78
2021/08/11 04:42:20;;;;;;;63.97;20.00;;;14.20;99.90;;;;;;5034329;28;20661;-79
2021/08/11 04:44:45;;;;;;;57.77;20.63;;;14.20;99.90;;;;;;5034506;28;20763;-79
2021/08/11 04:47:11;;;;;;;57.87;21.57;;;14.20;99.90;;;;;;5050749;28;20198;-79
2021/08/11 04:49:36;;;;;;;86.07;21.00;;;14.20;99.90;;;;;;5053269;28;20184;-78
2021/08/11 04:52:02;;;;;;;69.93;21.97;;;14.30;99.90;;;;;;5050684;28;20194;-78
2021/08/11 04:54:28;;;;;;;108.70;20.57;;;14.30;99.90;;;;;;5014045;28;20202;-78
2021/08/11 04:56:53;;;;;;;72.10;18.67;;;14.40;99.90;;;;;;5030679;28;20187;-78
2021/08/11 04:59:19;;;;;;;52.33;17.40;;;14.40;99.90;;;;;;5030579;28;20185;-78
2021/08/11 05:01:44;;;;;;;45.00;16.90;;;14.50;99.90;;;;;;5030672;28;20194;-77
2021/08/11 05:04:10;;;;;;;47.90;16.60;;;14.50;99.90;;;;;;5014392;28;20178;-78
2021/08/11 05:06:35;;;;;;;49.53;15.90;;;14.50;99.90;;;;;;5046220;28;20210;-78
2021/08/11 05:09:01;;;;;;;41.80;15.47;;;14.50;99.90;;;;;;5050410;28;20576;-78
2021/08/11 05:11:27;;;;;;;35.67;15.13;;;14.60;99.90;;;;;;5018978;28;20640;-78
2021/08/11 05:13:52;;;;;;;45.53;16.50;;;14.60;99.90;;;;;;5014034;28;20274;-78
2021/08/11 05:16:18;;;;;;;40.53;16.87;;;14.60;99.90;;;;;;5030171;28;20183;-78
2021/08/11 05:18:43;;;;;;;43.10;16.13;;;14.60;99.90;;;;;;5030460;28;20228;-78
2021/08/11 05:21:09;;;;;;;41.53;17.10;;;14.60;99.90;;;;;;4997730;28;20329;-78
2021/08/11 05:23:34;;;;;;;44.87;16.77;;;14.70;99.90;;;;;;5019815;28;20293;-78
2021/08/11 05:26:00;;;;;;;51.33;17.40;;;14.70;99.90;;;;;;5030482;28;20286;-78
2021/08/11 05:28:25;;;;;;;36.80;17.27;;;14.80;99.90;;;;;;5030327;28;20655;-78
2021/08/11 05:30:51;;;;;;;29.20;15.27;;;14.70;99.90;;;;;;5034405;28;20694;-78
2021/08/11 05:33:16;;;;;;;36.87;16.37;;;14.80;99.90;;;;;;5017966;28;20708;-78
2021/08/11 05:35:42;;;;;;;31.87;15.73;;;14.80;99.90;;;;;;5034402;28;20224;-77
2021/08/11 05:38:07;;;;;;;21.53;15.47;;;14.80;99.90;;;;;;5034445;28;20178;-78
2021/08/11 05:40:33;;;;;;;25.67;14.57;;;14.90;99.90;;;;;;5035161;28;20183;-78
2021/08/11 05:42:58;;;;;;;23.93;14.97;;;15.00;99.90;;;;;;5017555;28;20198;-78
2021/08/11 05:45:24;;;;;;;24.47;15.27;;;15.00;99.90;;;;;;5017803;28;20175;-77
2021/08/11 05:47:49;;;;;;;23.97;15.60;;;15.00;99.90;;;;;;5034037;28;20221;-78
2021/08/11 05:50:15;;;;;;;22.50;15.43;;;15.00;99.90;;;;;;5017521;28;20186;-78
2021/08/11 05:52:40;;;;;;;24.17;15.23;;;15.00;99.90;;;;;;5034965;28;20210;-78
2021/08/11 05:55:06;;;;;;;23.93;14.70;;;15.00;99.90;;;;;;5036560;28;20194;-79
2021/08/11 05:57:38;;;;;;;25.90;15.13;;;15.00;99.90;;;;;;5034373;28;20182;-79
2021/08/11 06:00:05;;;;;;;20.30;16.27;;;14.90;99.90;;;;;;5033940;28;20167;-79
2021/08/11 06:02:30;;;;;;;21.23;16.90;;;15.00;99.90;;;;;;5020957;28;20615;-78
2021/08/11 06:04:56;;;;;;;21.07;15.90;;;15.00;99.90;;;;;;5055170;28;20186;-78
2021/08/11 06:07:21;;;;;;;21.90;16.43;;;15.10;99.90;;;;;;5036971;28;20228;-77
2021/08/11 06:09:47;;;;;;;21.90;17.00;;;15.20;99.90;;;;;;5037220;28;20178;-78
2021/08/11 06:12:12;;;;;;;26.70;16.10;;;15.20;99.90;;;;;;5036911;28;20542;-77
2021/08/11 06:14:38;;;;;;;20.90;16.47;;;15.20;99.90;;;;;;5054871;28;20708;-78
2021/08/11 06:17:03;;;;;;;22.73;16.47;;;15.20;99.90;;;;;;5053750;28;20228;-78
2021/08/11 06:19:29;;;;;;;21.17;16.47;;;15.20;99.90;;;;;;5054006;28;20171;-82
2021/08/11 06:21:54;;;;;;;24.87;17.23;;;15.30;99.90;;;;;;5020646;28;20202;-79
2021/08/11 06:24:20;;;;;;;21.43;16.70;;;15.40;99.90;;;;;;5037301;28;20232;-78
2021/08/11 06:26:45;;;;;;;22.50;16.57;;;15.50;99.90;;;;;;5053876;28;20198;-78
2021/08/11 06:29:11;;;;;;;21.13;16.87;;;15.50;99.90;;;;;;5036819;28;20371;-78
2021/08/11 06:31:37;;;;;;;20.77;16.17;;;15.60;99.90;;;;;;5053697;28;20180;-78
2021/08/11 06:34:02;;;;;;;22.93;17.27;;;15.70;99.90;;;;;;5055252;28;20231;-78
2021/08/11 06:36:28;;;;;;;23.33;17.53;;;15.70;99.90;;;;;;5055180;28;20178;-78
2021/08/11 06:38:53;;;;;;;24.93;17.00;;;15.80;99.90;;;;;;5053427;28;20190;-78
2021/08/11 06:41:19;;;;;;;23.70;17.37;;;15.80;99.90;;;;;;5036516;28;20186;-79
2021/08/11 06:43:45;;;;;;;23.57;18.13;;;15.80;99.90;;;;;;5036856;28;20214;-78
2021/08/11 06:46:11;;;;;;;23.53;16.83;;;15.90;99.90;;;;;;5035925;28;20209;-77
2021/08/11 06:48:37;;;;;;;23.40;16.60;;;16.00;99.90;;;;;;5018241;28;20274;-78
2021/08/11 06:51:03;;;;;;;22.77;16.37;;;16.20;99.90;;;;;;5033221;28;20228;-76
2021/08/11 06:53:29;;;;;;;23.00;17.93;;;16.20;99.90;;;;;;5051591;28;20627;-77
2021/08/11 06:55:54;;;;;;;21.77;16.80;;;16.30;99.90;;;;;;5048635;28;20198;-77
2021/08/11 06:58:20;;;;;;;22.17;17.13;;;16.30;99.90;;;;;;5027473;28;20213;-77
2021/08/11 07:00:45;;;;;;;21.90;16.97;;;16.40;99.90;;;;;;5045140;28;20191;-77
2021/08/11 07:03:11;;;;;;;23.50;18.40;;;16.50;99.90;;;;;;5027134;28;20205;-77
2021/08/11 07:05:36;;;;;;;22.00;17.97;;;16.50;99.90;;;;;;5048593;28;20266;-77
2021/08/11 07:08:02;;;;;;;20.13;16.93;;;16.60;99.90;;;;;;5043368;28;20243;-77
2021/08/11 07:10:28;;;;;;;20.67;17.70;;;16.60;99.90;;;;;;5049294;28;20183;-77
2021/08/11 07:12:53;;;;;;;20.37;16.53;;;16.70;99.90;;;;;;5017603;28;20288;-77
2021/08/11 07:15:19;;;;;;;21.73;17.30;;;17.10;99.90;;;;;;5034851;28;20658;-77
2021/08/11 07:17:55;;;;;;;19.93;16.03;;;17.60;99.90;;;;;;5053365;28;20178;-80
2021/08/11 07:20:25;;;;;;;19.70;17.03;;;17.70;99.90;;;;;;5037019;28;20617;-78
2021/08/11 07:22:51;;;;;;;22.87;18.53;;;17.70;99.90;;;;;;5037781;28;20194;-79
2021/08/11 07:25:16;;;;;;;20.60;17.63;;;17.60;99.90;;;;;;5049223;28;20248;-79
2021/08/11 07:27:42;;;;;;;22.17;17.30;;;17.80;99.90;;;;;;5044695;28;20270;-80
2021/08/11 07:30:08;;;;;;;20.53;16.67;;;17.90;99.90;;;;;;5046763;28;20706;-78
2021/08/11 07:32:34;;;;;;;19.73;15.90;;;18.00;99.90;;;;;;5061887;28;20205;-77
2021/08/11 07:34:59;;;;;;;17.67;15.17;;;17.80;99.90;;;;;;5069622;28;20189;-77
2021/08/11 07:37:25;;;;;;;18.97;15.40;;;17.70;99.90;;;;;;5040425;28;20209;-77
2021/08/11 07:39:53;;;;;;;19.77;14.93;;;17.70;99.90;;;;;;5045156;28;20264;-80
2021/08/11 07:42:19;;;;;;;19.07;15.80;;;17.80;99.90;;;;;;5057637;28;20272;-78
2021/08/11 07:44:45;;;;;;;19.87;15.37;;;17.80;99.90;;;;;;5025972;28;20194;-79
2021/08/11 07:47:10;;;;;;;18.50;15.10;;;17.90;99.90;;;;;;5037198;28;20213;-77
2021/08/11 07:49:37;;;;;;;19.67;16.20;;;17.90;99.90;;;;;;5054707;28;20182;-77
2021/08/11 07:52:03;;;;;;;20.63;16.17;;;17.90;99.90;;;;;;5052102;28;20190;-78
2021/08/11 07:54:28;;;;;;;22.53;16.47;;;17.90;99.90;;;;;;5039305;28;20234;-77
2021/08/11 07:56:54;;;;;;;23.17;18.97;;;18.00;99.90;;;;;;5032536;28;20210;-77
2021/08/11 07:59:19;;;;;;;25.10;18.93;;;18.00;99.90;;;;;;5032369;28;20223;-78
2021/08/11 08:01:45;;;;;;;24.27;19.23;;;18.10;99.90;;;;;;5049389;28;20198;-80
2021/08/11 08:04:10;;;;;;;24.47;19.80;;;18.30;99.90;;;;;;5033207;28;20233;-79
2021/08/11 08:06:36;;;;;;;22.00;18.77;;;18.40;99.90;;;;;;5034099;28;20207;-78
2021/08/11 08:09:02;;;;;;;23.80;18.47;;;18.40;99.90;;;;;;5050283;28;20174;-78
2021/08/11 08:11:28;;;;;;;25.00;19.80;;;18.40;99.90;;;;;;5062130;28;20202;-79
2021/08/11 08:13:53;;;;;;;24.53;19.07;;;18.40;99.90;;;;;;5068814;28;20196;-78
2021/08/11 08:16:19;;;;;;;23.90;19.90;;;18.40;99.90;;;;;;5050416;28;20186;-78
2021/08/11 08:18:44;;;;;;;26.90;21.67;;;18.40;99.90;;;;;;5048947;28;20214;-78
2021/08/11 08:21:10;;;;;;;27.27;21.63;;;18.30;99.90;;;;;;5038654;28;20178;-78
2021/08/11 08:23:35;;;;;;;30.83;24.03;;;18.10;99.90;;;;;;5041726;28;20206;-78
2021/08/11 08:26:01;;;;;;;33.93;24.37;;;18.10;99.90;;;;;;5051347;28;20205;-77
2021/08/11 08:28:26;;;;;;;32.80;25.50;;;18.00;99.90;;;;;;5046311;28;20175;-76
2021/08/11 08:30:52;;;;;;;34.30;24.53;;;18.00;99.90;;;;;;5041037;28;20185;-78
2021/08/11 08:33:17;;;;;;;33.57;24.93;;;18.10;99.90;;;;;;5048893;28;20198;-79
2021/08/11 08:35:43;;;;;;;31.93;24.67;;;18.10;99.90;;;;;;5043207;28;20185;-79
2021/08/11 08:38:09;;;;;;;33.83;25.73;;;18.40;99.90;;;;;;5019003;28;20194;-81
2021/08/11 08:40:38;;;;;;;33.20;25.50;;;18.60;99.90;;;;;;5040589;28;20171;-80
2021/08/11 08:43:04;;;;;;;35.10;25.87;;;18.60;99.90;;;;;;5045488;28;20204;-80
2021/08/11 08:45:29;;;;;;;34.97;26.33;;;18.80;99.90;;;;;;5026193;28;20221;-80
2021/08/11 08:47:56;;;;;;;38.23;29.50;;;18.90;99.90;;;;;;5026951;28;20210;-77
2021/08/11 08:50:22;;;;;;;41.00;31.63;;;19.10;99.90;;;;;;5028896;28;20552;-79
2021/08/11 08:52:47;;;;;;;43.30;31.57;;;19.20;99.90;;;;;;5027100;28;20213;-78
2021/08/11 08:55:13;;;;;;;41.43;30.80;;;19.40;99.90;;;;;;5039862;28;20171;-80
2021/08/11 08:57:38;;;;;;;48.97;35.50;;;19.60;99.90;;;;;;5042633;28;20179;-80
2021/08/11 09:00:06;;;;;;;46.90;35.43;;;19.70;99.90;;;;;;5023593;28;20183;-81
2021/08/11 09:02:31;;;;;;;51.90;37.13;;;19.50;99.90;;;;;;5034270;28;20679;-77
2021/08/11 09:04:57;;;;;;;49.53;36.67;;;19.50;99.90;;;;;;5034961;28;20199;-80
2021/08/11 09:07:22;;;;;;;54.00;36.47;;;19.40;99.90;;;;;;5017952;28;20669;-79
2021/08/11 09:09:48;;;;;;;53.20;39.10;;;19.10;99.90;;;;;;5034148;28;20167;-79
2021/08/11 09:12:20;;;;;;;60.83;41.03;;;19.00;99.90;;;;;;5017406;28;20205;-80
2021/08/11 09:14:49;;;;;;;57.87;42.80;;;19.00;99.90;;;;;;5034042;28;20173;-80
2021/08/11 09:17:32;;;;;;;60.73;42.00;;;19.00;99.90;;;;;;5054253;28;20244;-80
2021/08/11 09:19:58;;;;;;;61.47;40.73;;;19.10;99.90;;;;;;5027562;28;20723;-80
2021/08/11 09:22:23;;;;;;;61.77;41.30;;;19.30;99.90;;;;;;5052385;28;20198;-80
2021/08/11 09:25:05;;;;;;;54.93;39.87;;;19.50;99.90;;;;;;5037766;28;20189;-80
2021/08/11 09:27:30;;;;;;;59.73;39.10;;;19.70;99.90;;;;;;5023600;28;20198;-79
2021/08/11 09:30:07;;;;;;;52.53;38.63;;;20.00;99.90;;;;;;5043886;28;20614;-80
2021/08/11 09:32:54;;;;;;;52.27;39.03;;;20.10;99.90;;;;;;5019165;28;20189;-80
2021/08/11 09:35:29;;;;;;;55.83;39.00;;;20.20;99.90;;;;;;5040727;28;20194;-80
2021/08/11 09:37:56;;;;;;;50.97;38.00;;;20.50;99.90;;;;;;5046364;28;20182;-80
2021/08/11 09:40:24;;;;;;;50.33;37.63;;;20.70;99.90;;;;;;5037114;28;20199;-81
2021/08/11 09:43:04;;;;;;;53.07;39.20;;;20.60;99.90;;;;;;5034629;28;20289;-80
2021/08/11 09:46:01;;;;;;;55.53;39.73;;;20.60;99.90;;;;;;5035018;28;20182;-80
2021/08/11 09:48:40;;;;;;;47.73;35.77;;;20.60;99.90;;;;;;5007577;28;20290;-80
2021/08/11 09:51:07;;;;;;;43.43;33.40;;;20.50;99.90;;;;;;5054878;28;20641;-80
2021/08/11 09:53:38;;;;;;;47.17;34.47;;;20.50;99.90;;;;;;5029871;23;20297;-78
2021/08/11 09:56:08;;;;;;;48.97;34.93;;;20.70;99.90;;;;;;5013477;28;20176;-78
2021/08/11 09:58:38;;;;;;;47.27;35.87;;;20.90;99.90;;;;;;4994324;28;20642;-78
2021/08/11 10:01:27;;;;;;;48.47;35.47;;;20.90;99.90;;;;;;5010045;28;20187;-78
2021/08/11 10:03:59;;;;;;;48.77;35.67;;;21.00;99.90;;;;;;4984366;28;20563;-79
2021/08/11 10:06:41;;;;;;;51.33;37.07;;;21.10;99.90;;;;;;4990499;28;20275;-78
2021/08/11 10:09:13;;;;;;;47.40;35.00;;;21.20;99.90;;;;;;4991464;28;20647;-79
2021/08/11 10:11:40;;;;;;;44.93;31.73;;;21.30;99.90;;;;;;4990842;28;20590;-78
2021/08/11 10:14:11;;;;;;;37.20;29.33;;;21.40;99.90;;;;;;4990084;28;20698;-79
2021/08/11 10:16:36;;;;;;;42.27;30.13;;;21.50;99.90;;;;;;4992268;28;20258;-78
2021/08/11 10:19:03;;;;;;;36.47;28.87;;;21.50;99.90;;;;;;4993614;28;20210;-78
2021/08/11 10:21:32;;;;;;;39.60;29.53;;;21.60;99.90;;;;;;4978630;28;20180;-79
2021/08/11 10:23:59;;;;;;;36.33;27.63;;;21.70;99.90;;;;;;4994737;28;20207;-79
2021/08/11 10:26:25;;;;;;;32.67;25.70;;;21.70;99.90;;;;;;4994410;28;20196;-79
2021/08/11 10:28:51;;;;;;;33.77;25.67;;;21.80;99.90;;;;;;4994541;28;20178;-79
2021/08/11 10:31:16;;;;;;;38.83;28.77;;;21.90;99.90;;;;;;4994232;28;20703;-79
2021/08/11 10:33:44;;;;;;;33.57;24.67;;;21.90;99.90;;;;;;4994343;28;20192;-79
2021/08/11 10:36:09;;;;;;;37.07;27.30;;;22.00;99.90;;;;;;4994532;28;20255;-78
2021/08/11 10:38:35;;;;;;;41.73;29.43;;;22.20;99.90;;;;;;4993937;28;20208;-79
2021/08/11 10:41:00;;;;;;;34.00;25.07;;;22.10;99.90;;;;;;4979548;28;20234;-77
2021/08/11 10:43:32;;;;;;;31.00;23.40;;;22.10;99.90;;;;;;4996682;28;20200;-77
2021/08/11 10:46:00;;;;;;;31.70;23.43;;;22.10;99.90;;;;;;4996770;28;20559;-79
2021/08/11 10:48:25;;;;;;;35.87;26.87;;;22.20;99.90;;;;;;4995501;28;20643;-78
2021/08/11 10:50:51;;;;;;;33.47;25.40;;;22.20;99.90;;;;;;4978124;28;20240;-81
2021/08/11 10:53:16;;;;;;;27.60;21.80;;;22.30;99.90;;;;;;4994211;28;20239;-80
2021/08/11 10:55:47;;;;;;;33.27;24.97;;;22.40;99.90;;;;;;4993998;28;20181;-82
2021/08/11 10:58:34;;;;;;;30.25;23.90;;;22.50;99.90;;;;;;4962354;28;20188;-81
2021/08/11 11:01:00;;;;;;;28.70;22.63;;;22.50;99.90;;;;;;4989988;28;20231;-83
2021/08/11 11:03:52;;;;;;;31.30;23.60;;;22.50;99.90;;;;;;4997953;28;20676;-81
2021/08/11 11:06:18;;;;;;;26.23;19.27;;;22.30;99.90;;;;;;4996197;28;20219;-80
2021/08/11 11:08:43;;;;;;;24.47;18.93;;;22.10;99.90;;;;;;4985375;28;20243;-83
2021/08/11 11:11:28;;;;;;;23.00;17.93;;;22.00;99.90;;;;;;4998014;28;20173;-80
2021/08/11 11:13:54;;;;;;;22.17;17.43;;;21.90;99.90;;;;;;4995967;28;20211;-81
2021/08/11 11:16:20;;;;;;;24.77;17.93;;;22.00;99.90;;;;;;4993849;28;20184;-81
2021/08/11 11:19:07;;;;;;;21.45;16.83;;;22.10;99.90;;;;;;4996760;28;20180;-82
2021/08/11 11:21:33;;;;;;;22.20;17.27;;;22.30;99.90;;;;;;5003324;28;20176;-80
2021/08/11 11:23:58;;;;;;;23.43;17.67;;;22.50;99.90;;;;;;4997077;28;20200;-81
2021/08/11 11:26:31;;;;;;;28.10;20.25;;;22.50;99.90;;;;;;4980123;28;20249;-82
2021/08/11 11:29:07;;;;;;;25.07;18.97;;;22.50;99.90;;;;;;4996265;28;20179;-81
2021/08/11 11:31:37;;;;;;;25.23;18.50;;;22.50;99.90;;;;;;4980136;28;20202;-82
2021/08/11 11:34:21;;;;;;;24.37;17.77;;;22.50;99.90;;;;;;4981267;28;20283;-82
2021/08/11 11:36:56;;;;;;;24.30;17.43;;;22.40;99.90;;;;;;4996937;28;20655;-81
2021/08/11 11:39:28;;;;;;;22.17;15.73;;;22.50;99.90;;;;;;4998931;28;20176;-80
2021/08/11 11:42:15;;;;;;;18.50;12.97;;;22.70;99.90;;;;;;4996542;28;20625;-82
2021/08/11 11:44:49;;;;;;;16.77;12.40;;;22.80;99.90;;;;;;4997226;28;20200;-80
2021/08/11 11:47:16;;;;;;;18.97;13.20;;;22.90;99.90;;;;;;4997310;28;20198;-80
2021/08/11 11:49:42;;;;;;;17.13;13.33;;;23.10;99.90;;;;;;4979129;28;20186;-80
2021/08/11 11:52:15;;;;;;;17.20;11.00;;;23.10;99.90;;;;;;4995216;28;20188;-81
2021/08/11 11:54:45;;;;;;;13.23;9.60;;;23.10;99.90;;;;;;4995644;28;20181;-80
2021/08/11 11:57:12;;;;;;;13.10;8.68;;;23.10;99.90;;;;;;4989264;28;20203;-80
2021/08/11 11:59:45;;;;;;;15.15;9.23;;;23.10;99.90;;;;;;4975461;28;20173;-80
2021/08/11 12:02:21;;;;;;;12.37;9.30;;;23.30;99.90;;;;;;4959581;28;20263;-80
2021/08/11 12:04:56;;;;;;;12.02;9.48;;;23.30;99.90;;;;;;4963106;28;20192;-80
2021/08/11 12:07:28;;;;;;;13.70;10.27;;;23.40;99.90;;;;;;4979028;28;20274;-81
2021/08/11 12:09:54;;;;;;;15.45;10.25;;;23.30;99.90;;;;;;4979376;28;20636;-80
2021/08/11 12:12:19;;;;;;;15.68;11.13;;;23.40;99.90;;;;;;4979405;28;20227;-82
2021/08/11 12:14:45;;;;;;;14.20;10.27;;;23.40;99.90;;;;;;4997430;28;20180;-81
2021/08/11 12:17:29;;;;;;;12.23;9.37;;;23.50;99.90;;;;;;4996866;28;20216;-81
2021/08/11 12:19:56;;;;;;;10.93;8.37;;;23.70;99.90;;;;;;4995254;28;20191;-81
2021/08/11 12:22:36;;;;;;;13.50;9.13;;;23.80;99.90;;;;;;4976447;28;20196;-79
2021/08/11 12:25:02;;;;;;;15.45;9.52;;;23.90;99.90;;;;;;4991886;28;20203;-79
2021/08/11 12:27:27;;;;;;;10.57;8.37;;;24.00;99.90;;;;;;4992728;28;20219;-79
2021/08/11 12:30:29;;;;;;;10.70;7.93;;;24.10;99.90;;;;;;4992276;28;20172;-79
2021/08/11 12:32:54;;;;;;;11.55;8.68;;;24.10;99.90;;;;;;4942606;29;20205;-78